Terminal Aerodrome Forecast
Issued by NWS

Home | Current Version | Previous Version | Text Only | Print | Product List | Glossary On
Versions: 1 2 3 4 5 6 7 8 9 10 11 12 13 14 15 16 17 18 19 20 21 22 23 24 25 26 27 28 29 30 31 32 33 34 35 36 37 38 39 40 41 42 43 44 45 46 47 48 49 50
000
FTUS44 KHGX 240520
TAFIAH
TAF
KIAH 240520Z 2406/2512 17004KT P6SM SCT020 BKN250
     FM241000 14007KT P6SM SCT007 BKN015
     FM241600 14011KT P6SM SCT015 BKN025
     FM241800 15014KT P6SM SCT025 BKN035
     FM250200 15008KT P6SM SCT250
     FM250600 15006KT P6SM BKN025=

USA.gov is the U.S. government's official web portal to all federal, state and local government web resources and services.